createdAt,value
2022-09-04T00:01:18.992Z,11.50
2022-09-04T00:03:55.891Z,15.70
2022-09-04T00:06:32.761Z,12.88
2022-09-04T00:09:12.983Z,14.02
2022-09-04T00:12:05.825Z,19.02
2022-09-04T00:14:52.663Z,12.63
2022-09-04T00:17:41.497Z,11.70
2022-09-04T00:20:32.843Z,15.07
2022-09-04T00:23:34.130Z,20.05
2022-09-04T00:26:06.547Z,12.70
2022-09-04T00:28:40.344Z,14.93
2022-09-04T00:32:01.697Z,14.73
2022-09-04T00:35:07.314Z,13.43
2022-09-04T00:37:39.039Z,15.35
2022-09-04T00:40:32.446Z,14.63
2022-09-04T00:43:43.273Z,19.02
2022-09-04T00:46:40.428Z,16.85
2022-09-04T00:49:16.574Z,15.00
2022-09-04T00:52:23.657Z,22.67
2022-09-04T00:55:10.391Z,16.47
2022-09-04T00:57:46.067Z,13.65
2022-09-04T01:00:17.319Z,16.42
2022-09-04T01:03:19.284Z,17.27
2022-09-04T01:06:01.317Z,12.77
2022-09-04T01:08:56.472Z,12.40
2022-09-04T01:11:38.284Z,13.10
2022-09-04T01:14:31.188Z,13.43
2022-09-04T01:17:12.343Z,14.77
2022-09-04T01:19:56.324Z,14.95
2022-09-04T01:22:52.461Z,18.23
2022-09-04T01:25:43.032Z,14.85
2022-09-04T01:28:11.550Z,14.88
2022-09-04T01:30:47.336Z,16.85
2022-09-04T01:33:40.323Z,15.70
2022-09-04T01:36:20.095Z,15.70
2022-09-04T01:38:53.656Z,15.35
2022-09-04T01:41:39.070Z,17.17
2022-09-04T01:44:11.012Z,13.85
2022-09-04T01:47:05.439Z,17.13
2022-09-04T01:49:44.836Z,18.77
2022-09-04T01:52:38.753Z,19.05
2022-09-04T01:55:44.723Z,17.98
2022-09-04T01:58:41.636Z,16.05
2022-09-04T02:01:38.392Z,15.63
2022-09-04T02:04:23.452Z,16.83
2022-09-04T02:06:59.068Z,14.35
2022-09-04T02:09:36.231Z,14.95
2022-09-04T02:12:30.192Z,15.52
2022-09-04T02:15:18.385Z,14.05
2022-09-04T02:18:12.355Z,17.60
2022-09-04T02:20:46.976Z,20.95
2022-09-04T02:23:47.612Z,16.80
2022-09-04T02:26:30.129Z,18.95
2022-09-04T02:29:08.563Z,15.45
2022-09-04T02:31:54.067Z,22.67
2022-09-04T02:34:29.176Z,16.30
2022-09-04T02:37:32.195Z,17.83
2022-09-04T02:40:11.866Z,16.48
2022-09-04T02:43:20.968Z,15.10
2022-09-04T02:45:53.746Z,16.23
2022-09-04T02:48:28.307Z,13.25
2022-09-04T02:51:14.010Z,18.58
2022-09-04T02:54:02.796Z,15.13
2022-09-04T02:56:52.185Z,15.85
2022-09-04T02:59:18.795Z,17.40
2022-09-04T03:01:59.165Z,15.15
2022-09-04T03:04:43.754Z,15.75
2022-09-04T03:07:28.191Z,21.58
2022-09-04T03:10:06.920Z,17.13
2022-09-04T03:12:57.756Z,16.77
2022-09-04T03:15:39.667Z,20.75
2022-09-04T03:18:33.171Z,13.20
2022-09-04T03:25:13.074Z,13.98
2022-09-04T03:43:32.664Z,24.00
2022-09-04T03:46:29.905Z,16.60
2022-09-04T03:49:06.785Z,15.10
2022-09-04T03:52:03.512Z,17.27
2022-09-04T03:54:30.249Z,18.40
2022-09-04T03:57:14.838Z,16.83
2022-09-04T04:00:00.495Z,19.33
2022-09-04T04:02:50.699Z,18.00
2022-09-04T04:05:39.774Z,15.40
2022-09-04T04:08:33.554Z,18.48
2022-09-04T04:11:20.781Z,16.95
2022-09-04T04:14:25.434Z,18.47
2022-09-04T04:17:20.615Z,20.38
2022-09-04T04:20:03.267Z,18.65
2022-09-04T04:41:14.953Z,17.80
2022-09-04T04:43:53.349Z,19.58
2022-09-04T04:46:39.457Z,17.17
2022-09-04T04:49:26.172Z,18.08
2022-09-04T04:52:23.437Z,19.67
2022-09-04T04:55:21.267Z,15.50
2022-09-04T04:58:18.676Z,18.60
2022-09-04T05:00:53.452Z,18.70
2022-09-04T05:07:23.277Z,17.55
2022-09-04T05:10:42.762Z,21.60
2022-09-04T05:54:27.148Z,20.27
2022-09-04T05:57:43.110Z,18.77
2022-09-04T06:00:19.610Z,19.88
2022-09-04T06:03:14.904Z,23.13
2022-09-04T06:05:41.555Z,24.58
2022-09-04T06:08:32.812Z,18.90
2022-09-04T06:11:18.026Z,17.98
2022-09-04T06:14:03.325Z,21.52
2022-09-04T06:16:59.233Z,17.85
2022-09-04T06:19:25.825Z,18.88
2022-09-04T06:22:01.339Z,20.27
2022-09-04T06:25:14.414Z,22.92
2022-09-04T06:27:52.624Z,23.40
2022-09-04T06:30:19.633Z,23.42
2022-09-04T06:33:19.010Z,21.85
2022-09-04T06:36:12.448Z,17.97
2022-09-04T06:39:04.439Z,27.77
2022-09-04T06:41:46.040Z,23.40
2022-09-04T06:44:30.785Z,24.67
2022-09-04T06:47:16.161Z,22.52
2022-09-04T06:50:01.527Z,22.60
2022-09-04T06:53:03.986Z,25.00
2022-09-04T06:55:44.439Z,22.10
2022-09-04T06:58:44.692Z,23.70
2022-09-04T07:01:46.621Z,26.27
2022-09-04T07:04:36.086Z,23.23
2022-09-04T07:07:44.361Z,23.65
2022-09-04T07:10:24.045Z,25.02
2022-09-04T07:13:12.683Z,20.67
2022-09-04T07:16:03.683Z,21.38
2022-09-04T07:18:54.324Z,23.70
2022-09-04T07:21:54.570Z,24.17
2022-09-04T07:24:49.921Z,18.35
2022-09-04T07:27:44.980Z,22.85
2022-09-04T07:30:17.213Z,22.58
2022-09-04T07:33:24.472Z,26.00
2022-09-04T07:36:00.033Z,22.60
2022-09-04T07:39:04.850Z,20.85
2022-09-04T07:41:42.503Z,28.55
2022-09-04T07:44:24.400Z,26.05
2022-09-04T07:47:13.421Z,19.63
2022-09-04T07:50:07.159Z,19.83
2022-09-04T07:56:33.820Z,23.80
2022-09-04T08:02:57.736Z,22.77
2022-09-04T08:05:47.799Z,19.40
2022-09-04T08:08:53.949Z,19.85
2022-09-04T08:12:33.787Z,20.65
2022-09-04T08:19:15.662Z,22.30
2022-09-04T08:22:28.140Z,18.98
2022-09-04T08:29:35.073Z,24.05
2022-09-04T08:32:53.516Z,18.63
2022-09-04T08:35:54.291Z,22.57
2022-09-04T08:38:32.269Z,20.92
2022-09-04T08:41:21.832Z,15.23
2022-09-04T08:44:30.604Z,22.15
2022-09-04T08:46:58.233Z,19.10
2022-09-04T08:49:32.525Z,22.10
2022-09-04T08:55:49.619Z,18.75
2022-09-04T08:58:26.746Z,22.17
2022-09-04T09:01:33.707Z,17.90
2022-09-04T09:05:19.497Z,17.42
2022-09-04T09:08:18.679Z,16.45
2022-09-04T09:11:56.053Z,19.50
2022-09-04T09:48:39.104Z,16.45
2022-09-04T09:52:22.448Z,15.55
2022-09-04T09:55:40.114Z,10.25
2022-09-04T09:58:57.194Z,13.63
2022-09-04T10:31:45.946Z,7.20
2022-09-04T10:34:52.074Z,8.32
2022-09-04T10:41:48.636Z,8.07
2022-09-04T10:44:56.763Z,10.40
2022-09-04T10:51:16.037Z,7.60
2022-09-04T10:57:37.852Z,12.00
2022-09-04T11:04:09.017Z,6.97
2022-09-04T11:07:32.399Z,7.68
2022-09-04T11:10:56.315Z,7.35
2022-09-04T11:14:02.318Z,9.93
2022-09-04T11:42:37.338Z,9.10
2022-09-04T11:45:29.423Z,6.75
2022-09-04T11:51:54.489Z,6.68
2022-09-04T11:58:32.317Z,7.35
2022-09-04T12:01:43.480Z,6.75
2022-09-04T12:04:54.044Z,7.03
2022-09-04T12:08:22.296Z,5.63
2022-09-04T12:14:36.464Z,8.32
2022-09-04T12:17:31.233Z,9.25
2022-09-04T12:21:00.565Z,7.32
2022-09-04T12:23:58.862Z,6.63
2022-09-04T12:26:59.856Z,7.03
2022-09-04T12:29:38.865Z,6.68
2022-09-04T12:32:25.403Z,6.93
2022-09-04T12:35:12.971Z,7.22
2022-09-04T12:38:18.556Z,8.55
2022-09-04T12:41:09.724Z,7.60
2022-09-04T12:44:15.956Z,5.85
2022-09-04T12:47:09.786Z,4.78
2022-09-04T12:49:52.220Z,4.57
2022-09-04T12:52:53.765Z,4.85
2022-09-04T12:55:38.294Z,7.32
2022-09-04T12:58:15.589Z,5.68
2022-09-04T13:00:56.732Z,6.13
2022-09-04T13:03:38.128Z,8.85
2022-09-04T13:06:13.227Z,5.13
2022-09-04T13:08:59.050Z,3.60
2022-09-04T13:11:34.701Z,6.38
2022-09-04T13:14:10.603Z,5.25
2022-09-04T13:16:55.066Z,6.30
2022-09-04T13:19:47.321Z,8.85
2022-09-04T13:22:50.819Z,9.90
2022-09-04T13:25:59.554Z,4.25
2022-09-04T13:28:51.103Z,4.35
2022-09-04T13:31:33.305Z,5.43
2022-09-04T13:34:24.097Z,3.58
2022-09-04T13:37:48.089Z,6.22
2022-09-04T13:40:14.694Z,6.15
2022-09-04T13:43:11.087Z,6.20
2022-09-04T13:45:49.006Z,4.10
2022-09-04T13:48:42.095Z,16.48
2022-09-04T13:51:13.860Z,5.68
2022-09-04T13:54:26.662Z,7.70
2022-09-04T13:57:06.004Z,5.22
2022-09-04T13:59:33.885Z,4.68
2022-09-04T14:02:08.360Z,3.95
2022-09-04T14:04:40.434Z,4.95
2022-09-04T14:07:33.645Z,4.15
2022-09-04T14:10:04.687Z,4.28
2022-09-04T14:13:09.910Z,10.45
2022-09-04T14:15:59.890Z,6.15
2022-09-04T14:18:47.909Z,8.63
2022-09-04T14:24:51.840Z,6.35
2022-09-04T14:27:46.784Z,6.53
2022-09-04T14:30:17.007Z,5.53
2022-09-04T14:30:29.409Z,4.55
2022-09-04T14:32:58.035Z,6.00
2022-09-04T14:35:36.423Z,3.73
2022-09-04T14:38:26.219Z,4.82
2022-09-04T14:41:20.463Z,4.10
2022-09-04T14:44:06.911Z,4.68
2022-09-04T14:46:43.410Z,4.20
2022-09-04T14:49:20.118Z,4.55
2022-09-04T14:51:49.314Z,5.95
2022-09-04T14:54:29.303Z,9.20
2022-09-04T14:57:14.224Z,4.63
2022-09-04T14:59:47.125Z,6.90
2022-09-04T15:02:46.979Z,5.13
2022-09-04T15:05:25.524Z,4.30
2022-09-04T15:08:07.441Z,4.20
2022-09-04T15:10:52.201Z,10.00
2022-09-04T15:13:33.573Z,4.72
2022-09-04T15:16:20.597Z,4.53
2022-09-04T15:19:18.792Z,5.28
2022-09-04T15:22:05.497Z,4.88
2022-09-04T15:24:38.623Z,8.13
2022-09-04T15:27:28.323Z,4.50
2022-09-04T15:29:58.947Z,6.25
2022-09-04T15:32:27.642Z,5.20
2022-09-04T15:35:14.965Z,7.18
2022-09-04T15:37:48.395Z,6.72
2022-09-04T15:40:35.688Z,5.65
2022-09-04T15:43:17.523Z,8.20
2022-09-04T15:46:13.045Z,6.68
2022-09-04T15:49:07.927Z,4.25
2022-09-04T15:51:46.451Z,4.63
2022-09-04T15:54:26.971Z,6.38
2022-09-04T15:56:53.706Z,5.07
2022-09-04T15:59:24.348Z,5.63
2022-09-04T16:02:20.305Z,4.97
2022-09-04T16:05:03.300Z,6.75
2022-09-04T16:07:41.761Z,7.18
2022-09-04T16:10:10.871Z,4.72
2022-09-04T16:12:57.063Z,9.90
2022-09-04T16:15:27.018Z,3.85
2022-09-04T16:17:55.480Z,8.77
2022-09-04T16:20:36.760Z,8.45
2022-09-04T16:23:10.227Z,5.65
2022-09-04T16:25:50.260Z,7.85
2022-09-04T16:28:25.366Z,7.25
2022-09-04T16:31:02.843Z,5.60
2022-09-04T16:33:44.879Z,7.20
2022-09-04T16:36:24.943Z,5.68
2022-09-04T16:39:14.159Z,6.32
2022-09-04T16:41:52.426Z,5.32
2022-09-04T16:44:25.624Z,5.63
2022-09-04T16:47:14.955Z,8.07
2022-09-04T16:50:11.775Z,5.78
2022-09-04T16:52:41.343Z,4.32
2022-09-04T16:55:31.191Z,5.88
2022-09-04T16:58:35.328Z,4.03
2022-09-04T17:01:22.115Z,3.15
2022-09-04T17:04:04.157Z,3.35
2022-09-04T17:07:03.700Z,5.25
2022-09-04T17:09:43.877Z,7.13
2022-09-04T17:12:48.215Z,4.93
2022-09-04T17:15:30.710Z,4.38
2022-09-04T17:18:00.125Z,4.20
2022-09-04T17:24:50.456Z,5.40
2022-09-04T17:28:56.266Z,4.15
2022-09-04T17:29:17.347Z,8.48
2022-09-04T17:29:36.288Z,7.50
2022-09-04T17:34:01.629Z,3.47
2022-09-04T17:40:34.778Z,5.55
2022-09-04T17:40:54.774Z,2.65
2022-09-04T17:42:04.694Z,4.65
2022-09-04T17:45:15.771Z,5.38
2022-09-04T17:47:43.298Z,3.25
2022-09-04T17:50:16.875Z,6.80
2022-09-04T17:53:01.833Z,5.25
2022-09-04T17:55:39.022Z,5.72
2022-09-04T17:58:31.400Z,2.50
2022-09-04T18:01:17.546Z,7.97
2022-09-04T18:04:09.878Z,5.22
2022-09-04T18:06:59.395Z,3.25
2022-09-04T18:09:39.991Z,3.60
2022-09-04T18:12:31.270Z,6.45
2022-09-04T18:15:32.224Z,4.28
2022-09-04T18:18:00.828Z,4.78
2022-09-04T18:20:40.084Z,3.88
2022-09-04T18:24:07.600Z,5.05
2022-09-04T18:26:40.814Z,4.18
2022-09-04T18:33:16.181Z,7.18
2022-09-04T18:37:19.825Z,3.97
2022-09-04T18:37:24.544Z,3.78
2022-09-04T18:38:35.600Z,3.90
2022-09-04T18:47:22.224Z,5.65
2022-09-04T18:50:22.646Z,3.00
2022-09-04T18:50:44.273Z,3.25
2022-09-04T18:53:43.639Z,2.88
2022-09-04T18:56:28.812Z,6.45
2022-09-04T18:59:26.125Z,5.75
2022-09-04T19:02:13.596Z,4.30
2022-09-04T19:04:47.078Z,5.75
2022-09-04T19:07:29.974Z,7.22
2022-09-04T19:10:21.530Z,3.78
2022-09-04T19:12:56.329Z,7.50
2022-09-04T19:15:36.163Z,4.07
2022-09-04T19:18:43.514Z,8.70
2022-09-04T19:21:14.235Z,3.83
2022-09-04T19:23:50.398Z,7.07
2022-09-04T19:26:39.667Z,19.20
2022-09-04T19:29:42.648Z,10.40
2022-09-04T19:32:41.672Z,9.43
2022-09-04T19:35:17.695Z,9.10
2022-09-04T19:44:10.173Z,6.75
2022-09-04T19:46:06.078Z,3.53
2022-09-04T19:46:11.593Z,9.40
2022-09-04T19:47:27.443Z,4.53
2022-09-04T19:53:20.030Z,7.90
2022-09-04T19:53:36.040Z,7.50
2022-09-04T19:56:08.373Z,4.35
2022-09-04T19:58:39.391Z,7.35
2022-09-04T20:01:16.481Z,8.13
2022-09-04T20:03:50.163Z,14.20
2022-09-04T20:06:21.550Z,7.97
2022-09-04T20:09:18.085Z,3.25
2022-09-04T20:12:01.479Z,4.03
2022-09-04T20:14:36.888Z,3.83
2022-09-04T20:17:33.201Z,5.30
2022-09-04T20:20:05.808Z,5.38
2022-09-04T20:22:45.330Z,5.22
2022-09-04T20:25:26.967Z,7.80
2022-09-04T20:28:00.237Z,5.00
2022-09-04T20:30:28.834Z,5.28
2022-09-04T20:33:06.084Z,9.80
2022-09-04T20:36:02.212Z,7.70
2022-09-04T20:38:57.844Z,6.22
2022-09-04T20:41:55.756Z,5.10
2022-09-04T20:44:52.474Z,4.88
2022-09-04T20:52:53.682Z,6.45
2022-09-04T20:52:55.451Z,6.75
2022-09-04T20:54:06.688Z,8.07
2022-09-04T20:58:33.699Z,4.00
2022-09-04T21:03:21.498Z,5.30
2022-09-04T21:03:28.932Z,6.97
2022-09-04T21:06:17.850Z,5.20
2022-09-04T21:08:53.516Z,5.35
2022-09-04T21:11:41.202Z,6.93
2022-09-04T21:14:45.810Z,9.02
2022-09-04T21:17:56.049Z,5.47
2022-09-04T21:21:22.112Z,4.65
2022-09-04T21:24:12.224Z,6.68
2022-09-04T21:27:10.046Z,8.70
2022-09-04T21:29:57.646Z,5.28
2022-09-04T21:33:27.175Z,4.03
2022-09-04T21:36:25.842Z,5.07
2022-09-04T21:39:02.946Z,4.93
2022-09-04T21:41:51.210Z,6.85
2022-09-04T21:44:38.943Z,8.25
2022-09-04T21:47:09.016Z,8.60
2022-09-04T21:50:22.981Z,7.60
2022-09-04T21:53:17.170Z,6.85
2022-09-04T22:00:16.103Z,6.55
2022-09-04T22:02:40.790Z,7.40
2022-09-04T22:02:59.239Z,8.32
2022-09-04T22:06:09.262Z,6.43
2022-09-04T22:13:31.083Z,7.57
2022-09-04T22:13:39.072Z,7.22
2022-09-04T22:14:37.176Z,6.47
2022-09-04T22:17:03.725Z,9.48
2022-09-04T22:19:48.953Z,7.82
2022-09-04T22:22:34.359Z,7.63
2022-09-04T22:25:18.884Z,10.55
2022-09-04T22:28:22.991Z,5.88
2022-09-04T22:31:29.477Z,11.00
2022-09-04T22:34:17.349Z,9.82
2022-09-04T22:37:06.078Z,14.05
2022-09-04T22:40:17.265Z,8.02
2022-09-04T22:42:58.559Z,13.90
2022-09-04T22:45:43.639Z,7.35
2022-09-04T22:48:10.206Z,11.63
2022-09-04T22:51:14.395Z,10.70
2022-09-04T22:54:00.180Z,13.98
2022-09-04T22:56:45.953Z,11.05
2022-09-04T22:59:56.819Z,12.88
2022-09-04T23:03:09.638Z,10.05
2022-09-04T23:05:39.834Z,10.70
2022-09-04T23:13:42.023Z,14.80
2022-09-04T23:13:58.886Z,9.48
2022-09-04T23:14:33.956Z,7.78
2022-09-04T23:17:33.772Z,11.98
2022-09-04T23:26:37.835Z,13.32
2022-09-04T23:26:38.100Z,8.57
2022-09-04T23:27:12.327Z,12.18
2022-09-04T23:29:53.941Z,8.57
2022-09-04T23:32:57.565Z,9.55
2022-09-04T23:35:37.525Z,11.15
2022-09-04T23:38:19.993Z,11.10
2022-09-04T23:41:05.136Z,9.48
2022-09-04T23:44:33.079Z,10.00
2022-09-04T23:47:47.108Z,13.00
2022-09-04T23:50:12.339Z,14.82
2022-09-04T23:52:59.754Z,9.32
2022-09-04T23:55:50.215Z,12.52
2022-09-04T23:58:51.493Z,11.98
